Data for 06/08/2013

Time Sea-Level Adjusted Pressure Absolute Pressure Temperature Relative Humidity Dew Point   
(mb) (inHg) (mb) (inHg) (C) (F) (%) (C) (F)
00:05 1016 30 845 24.95 16.2 61.1 45 4.3 39.8
00:10 1016 30 845 24.95 15.9 60.6 46 4.3 39.8
00:15 1016 30 845 24.95 15.7 60.2 47 4.6 40.2
00:20 1016 30 845 24.95 15.3 59.5 50 4.9 40.8
00:25 1016 30 845 24.95 15.2 59.4 50 4.8 40.7
00:30 1016 30 845 24.95 15.5 59.8 49 5 41
00:35 1016 30 845 24.95 15.6 60.1 49 5.1 41.1
00:40 1016 30 845 24.95 15.7 60.2 48 4.9 40.8
00:45 1016 30 845 24.95 15.7 60.2 49 5 41
00:50 1016 30 845 24.95 15.6 60.1 48 4.9 40.8
00:55 1016 30 846 24.98 15.5 59.9 49 5 40.9
01:00 1017 30.03 846 24.98 15.3 59.6 52 5.6 42.1
01:05 1017 30.03 846 24.98 14.9 58.8 54 5.8 42.5
01:10 1017 30.03 846 24.98 14.3 57.7 56 5.6 42.1
01:15 1017 30.03 846 24.98 14 57.2 56 5.5 41.9
01:20 1017 30.03 846 24.98 14 57.1 56 5.5 41.8
01:25 1017 30.03 846 24.98 14 57.1 56 5.5 41.9
01:30 1017 30.03 846 24.98 13.9 57 56 5.4 41.8
01:35 1017 30.03 846 24.98 13.9 57 56 5.4 41.7
01:40 1017 30.03 846 24.98 13.7 56.7 57 5.4 41.7
01:45 1017 30.03 846 24.98 13.6 56.5 56 5.2 41.3
01:50 1017 30.03 846 24.98 13.7 56.6 56 5.2 41.4
01:55 1017 30.03 846 24.98 13.5 56.3 58 5.6 42
02:00 1017 30.03 846 24.98 13.3 56 57 5.1 41.3
02:05 1017 30.03 846 24.98 13.4 56 58 5.4 41.7
02:10 1017 30.03 846 24.98 13 55.4 61 5.7 42.2
02:15 1017 30.03 846 24.98 12.7 54.8 61 5.4 41.8
02:20 1017 30.03 846 24.98 12.6 54.6 61 5.3 41.5
02:25 1017 30.03 846 24.98 12.6 54.6 62 5.4 41.8
02:30 1017 30.03 846 24.98 12.5 54.5 60 5.1 41.2
02:35 1017 30.03 846 24.98 12.6 54.7 62 5.5 41.9
02:40 1017 30.03 846 24.98 12.5 54.5 63 5.6 42.1
02:45 1017 30.03 846 24.98 12.3 54.2 63 5.6 42
02:50 1017 30.03 846 24.98 12.1 53.8 63 5.4 41.8
02:55 1017 30.03 846 24.98 12.2 54 61 4.9 40.9
03:00 1017 30.03 846 24.98 12.5 54.4 61 5.3 41.5
03:05 1017 30.03 846 24.98 12.3 54.1 61 5 41
03:10 1017 30.03 846 24.98 12.2 53.9 61 4.9 40.9
03:15 1017 30.03 846 24.98 12 53.6 62 5.1 41.2
03:20 1017 30.03 846 24.98 11.8 53.3 62 4.7 40.5
03:25 1017 30.03 846 24.98 11.9 53.4 61 4.7 40.5
03:30 1017 30.03 846 24.98 11.9 53.4 61 4.7 40.5
03:35 1017 30.03 846 24.98 11.9 53.5 60 4.5 40.1
03:40 1017 30.03 846 24.98 12 53.6 61 4.8 40.7
03:45 1017 30.03 846 24.98 11.9 53.4 61 4.6 40.2
03:50 1017 30.03 846 24.98 11.9 53.5 60 4.4 40
03:55 1017 30.03 846 24.98 11.8 53.2 61 4.6 40.3
04:00 1017 30.03 846 24.98 11.5 52.8 62 4.5 40.1
04:05 1017 30.03 846 24.98 11.4 52.5 61 4.3 39.7
04:10 1017 30.03 846 24.98 11.4 52.6 62 4.5 40.1
04:15 1017 30.03 846 24.98 11.3 52.3 62 4.4 39.9
04:20 1017 30.03 847 25.01 11.2 52.1 61 4.1 39.3
04:25 1017 30.03 847 25.01 11.4 52.5 61 4.1 39.5
04:30 1017 30.03 847 25.01 11.4 52.5 61 4.2 39.6
04:35 1017 30.03 847 25.01 11.2 52.1 61 4.1 39.3
04:40 1017 30.03 847 25.01 11.2 52.2 61 4.1 39.3
04:45 1017 30.03 847 25.01 11 51.9 62 4.1 39.3
04:50 1017 30.03 847 25.01 11.1 51.9 61 3.8 38.9
04:55 1018 30.06 847 25.01 11.1 52 62 4.2 39.5
05:00 1018 30.06 847 25.01 10.9 51.6 61 3.8 38.8
05:05 1018 30.06 847 25.01 11.2 52.1 60 3.7 38.6
05:10 1018 30.06 847 25.01 11.3 52.3 59 3.6 38.4
05:15 1018 30.06 847 25.01 11.3 52.4 59 3.7 38.6
05:20 1018 30.06 847 25.01 11.2 52.1 59 3.6 38.5
05:25 1018 30.06 847 25.01 11.1 52 60 3.6 38.5
05:30 1018 30.06 847 25.01 11.3 52.4 60 3.8 38.8
05:35 1018 30.06 847 25.01 11.4 52.5 59 3.8 38.9
05:40 1018 30.06 847 25.01 11.7 53.1 58 3.7 38.7
05:45 1018 30.06 847 25.01 11.8 53.3 58 3.8 38.9
05:50 1018 30.06 847 25.01 11.8 53.3 59 4.1 39.3
05:55 1018 30.06 847 25.01 11.8 53.3 58 3.8 38.9
06:00 1018 30.06 847 25.01 12 53.6 59 4.3 39.8
06:05 1018 30.06 847 25.01 12.1 53.9 59 4.4 39.9
06:10 1018 30.06 847 25.01 12.3 54.1 60 4.7 40.5
06:15 1018 30.06 847 25.01 12.4 54.4 60 4.9 40.8
06:20 1018 30.06 847 25.01 12.8 55.1 58 4.9 40.8
06:25 1018 30.06 847 25.01 13.1 55.6 59 5.4 41.6
06:30 1018 30.06 847 25.01 13.4 56 58 5.3 41.6
06:35 1018 30.06 848 25.04 13.8 56.8 55 4.9 40.8
06:40 1018 30.06 848 25.04 14.1 57.3 54 5 41
06:45 1018 30.06 848 25.04 14.5 58.1 54 5.5 41.8
06:50 1018 30.06 848 25.04 14.8 58.6 51 4.8 40.7
06:55 1018 30.06 848 25.04 15.2 59.3 45 3.5 38.3
07:00 1018 30.06 848 25.04 15.5 59.9 45 3.8 38.8
07:05 1018 30.06 848 25.04 15.6 60.1 45 3.7 38.7
07:10 1018 30.06 848 25.04 16 60.8 43 3.5 38.3
07:15 1018 30.06 848 25.04 16.3 61.3 41 3.2 37.8
07:20 1018 30.06 848 25.04 16.6 61.8 42 3.7 38.6
07:25 1018 30.06 848 25.04 16.9 62.4 42 4 39.2
07:30 1018 30.06 848 25.04 17 62.5 40 3.5 38.4
07:35 1018 30.06 848 25.04 17.4 63.4 38 3.1 37.6
07:40 1019 30.09 848 25.04 17.4 63.3 38 2.9 37.3
07:45 1019 30.09 848 25.04 17.5 63.4 37 2.8 37
07:50 1019 30.09 848 25.04 17.4 63.4 39 3.3 37.9
07:55 1019 30.09 848 25.04 17.1 62.8 38 3 37.4
08:00 1019 30.09 848 25.04 17.6 63.7 38 3.2 37.7
08:05 1019 30.09 848 25.04 18.2 64.7 37 3.4 38.2
08:10 1019 30.09 848 25.04 18.3 65 37 3.4 38.1
08:15 1019 30.09 848 25.04 17.9 64.2 37 3.3 38
08:20 1019 30.09 848 25.04 17.5 63.5 39 3.4 38.1
08:25 1019 30.09 848 25.04 18.2 64.7 36 3.1 37.6
08:30 1019 30.09 848 25.04 17.7 63.9 39 3.7 38.6
08:35 1019 30.09 848 25.04 17.9 64.2 37 3.1 37.6
08:40 1019 30.09 848 25.04 18.2 64.7 37 3.3 37.9
08:45 1019 30.09 848 25.04 18.2 64.8 36 3.1 37.7
08:50 1019 30.09 848 25.04 18.3 65 36 3 37.3
08:55 1019 30.09 848 25.04 18.6 65.5 37 3.8 38.9
09:00 1019 30.09 848 25.04 18.9 66 37 4 39.3
09:05 1018 30.06 848 25.04 18.6 65.4 37 3.7 38.6
09:10 1018 30.06 848 25.04 19.1 66.3 33 2.5 36.6
09:15 1018 30.06 848 25.04 19 66.1 33 2.6 36.7
09:20 1018 30.06 847 25.01 19.3 66.7 33 2.7 36.8
09:25 1018 30.06 847 25.01 19.6 67.3 30 1.7 35.1
09:30 1018 30.06 847 25.01 19.8 67.7 30 1.9 35.5
09:35 1018 30.06 847 25.01 20.2 68.3 27 1 33.8
09:40 1018 30.06 847 25.01 20.1 68.2 28 1 33.8
09:45 1018 30.06 847 25.01 20.2 68.4 28 1.1 34
09:50 1018 30.06 847 25.01 19.7 67.5 29 1.5 34.6
09:55 1018 30.06 847 25.01 19.9 67.7 29 1.2 34.2
10:00 1018 30.06 847 25.01 19.8 67.6 29 1.5 34.6
10:05 1018 30.06 847 25.01 19.8 67.6 28 0.7 33.3
10:10 1018 30.06 847 25.01 20.5 68.8 24 -0.6 30.9
10:15 1018 30.06 847 25.01 20.4 68.7 26 0.4 32.8
10:20 1018 30.06 847 25.01 20.4 68.6 25 -0 31.9
10:25 1018 30.06 847 25.01 20.9 69.6 24 -0.3 31.4
10:30 1018 30.06 847 25.01 20.5 68.8 24 -0.9 30.4
10:35 1018 30.06 847 25.01 20.3 68.5 22 -2.2 28.1
10:40 1018 30.06 847 25.01 20.8 69.4 20 -2.9 26.8
10:45 1018 30.06 847 25.01 20.9 69.6 19 -3.5 25.6
10:50 1018 30.06 847 25.01 20.7 69.3 20 -3.2 26.3
10:55 1018 30.06 847 25.01 21.1 70 19 -2.9 26.8
11:00 1018 30.06 847 25.01 20.7 69.3 18 -4.4 24.1
11:05 1018 30.06 847 25.01 20.8 69.5 15 -6.2 20.8
11:10 1018 30.06 847 25.01 21.3 70.3 17 -5 23
11:15 1018 30.06 847 25.01 21 69.8 17 -4.8 23.4
11:20 1018 30.06 847 25.01 20.8 69.4 18 -4.4 24.1
11:25 1018 30.06 847 25.01 21.3 70.3 17 -4.7 23.6
11:30 1018 30.06 847 25.01 21.4 70.5 17 -4.3 24.2
11:35 1018 30.06 847 25.01 21.6 70.8 19 -3 26.5
11:40 1018 30.06 847 25.01 21.5 70.7 18 -3.9 24.9
11:45 1018 30.06 847 25.01 21.5 70.8 17 -4.7 23.6
11:50 1018 30.06 847 25.01 21.7 71.1 15 -6.3 20.7
11:55 1018 30.06 847 25.01 21.4 70.5 15 -6.3 20.6
12:00 1018 30.06 847 25.01 22.1 71.9 15 -6 21.3
12:05 1018 30.06 847 25.01 22.3 72.2 16 -4.3 24.2
12:10 1018 30.06 847 25.01 22.5 72.5 14 -5.9 21.4
12:15 1018 30.06 847 25.01 22.3 72.1 15 -5.2 22.6
12:20 1018 30.06 847 25.01 22.6 72.7 14 -5.9 21.4
12:25 1018 30.06 847 25.01 22.6 72.7 15 -5.1 22.7
12:30 1018 30.06 847 25.01 22.4 72.4 15 -5.6 21.8
12:35 1017 30.03 847 25.01 22.6 72.6 15 -4.9 23.2
12:40 1018 30.06 847 25.01 23.2 73.7 14 -6 21.2
12:45 1017 30.03 847 25.01 22.6 72.6 15 -5.1 22.9
12:50 1017 30.03 847 25.01 22.9 73.2 14 -5.5 22
12:55 1017 30.03 847 25.01 23.3 73.9 14 -5.1 22.8
13:00 1017 30.03 847 25.01 23.1 73.6 14 -5.5 22.1
13:05 1017 30.03 846 24.98 23.2 73.7 15 -5 23
13:10 1017 30.03 846 24.98 23.5 74.3 15 -4.3 24.3
13:15 1017 30.03 846 24.98 23.3 73.9 14 -5.5 22.1
13:20 1017 30.03 846 24.98 23.4 74.1 15 -4.5 24
13:25 1017 30.03 846 24.98 23.7 74.6 14 -5.2 22.6
13:30 1017 30.03 846 24.98 24.1 75.4 15 -4.3 24.2
13:35 1017 30.03 846 24.98 24.1 75.3 15 -3.8 25.1
13:40 1017 30.03 846 24.98 23.7 74.6 15 -4.2 24.4
13:45 1017 30.03 846 24.98 23.5 74.4 17 -2.7 27.1
13:50 1017 30.03 846 24.98 23.7 74.6 15 -4.3 24.2
13:55 1017 30.03 846 24.98 23.9 75 15 -3.7 25.3
14:00 1017 30.03 846 24.98 24.2 75.6 14 -4.4 24
14:05 1017 30.03 846 24.98 24.1 75.4 14 -5.2 22.7
14:10 1017 30.03 846 24.98 24.3 75.7 15 -4.1 24.7
14:15 1017 30.03 846 24.98 24.3 75.8 14 -4.2 24.4
14:20 1017 30.03 846 24.98 24.3 75.8 15 -3.7 25.4
14:25 1017 30.03 846 24.98 24.3 75.7 16 -3.1 26.4
14:30 1017 30.03 846 24.98 24.4 75.9 15 -3.6 25.4
14:35 1017 30.03 846 24.98 24.3 75.7 15 -3.5 25.6
14:40 1017 30.03 846 24.98 24.4 76 15 -3.9 25
14:45 1017 30.03 846 24.98 24.3 75.7 15 -3.7 25.3
14:50 1017 30.03 846 24.98 24.2 75.5 15 -3.5 25.8
14:55 1017 30.03 846 24.98 24.5 76.1 15 -3.9 24.9
15:00 1017 30.03 846 24.98 24.4 75.8 15 -3.5 25.8
15:05 1017 30.03 846 24.98 24.5 76 15 -3.4 25.8
15:10 1017 30.03 846 24.98 24.7 76.4 16 -2.9 26.8
15:15 1017 30.03 846 24.98 24.8 76.6 16 -2.2 28.1
15:20 1017 30.03 846 24.98 24.7 76.4 15 -3.4 25.9
15:25 1016 30 846 24.98 25.1 77.1 16 -2.4 27.6
15:30 1016 30 846 24.98 25.2 77.4 16 -2 28.5
15:35 1016 30 845 24.95 25.3 77.5 14 -3.6 25.5
15:40 1016 30 845 24.95 25.2 77.4 15 -2.7 27.2
15:45 1016 30 845 24.95 24.8 76.7 15 -3.4 25.9
15:50 1016 30 845 24.95 25 77 15 -2.8 26.9
15:55 1016 30 845 24.95 25.1 77.2 16 -2.6 27.3
16:00 1016 30 845 24.95 25.4 77.8 16 -1.7 28.9
16:05 1016 30 845 24.95 25.6 78.1 16 -2.2 28
16:10 1016 30 845 24.95 25.4 77.6 15 -2.8 26.9
16:15 1016 30 845 24.95 25.2 77.3 17 -1.4 29.5
16:20 1016 30 845 24.95 25.5 77.9 16 -2.3 27.8
16:25 1016 30 845 24.95 25.8 78.4 16 -1.7 29
16:30 1016 30 845 24.95 25.5 77.9 16 -1.9 28.6
16:35 1016 30 845 24.95 25.2 77.3 16 -2.3 27.9
16:40 1016 30 845 24.95 25.6 78.1 15 -2.3 27.9
16:45 1016 30 845 24.95 25.9 78.5 16 -1.4 29.4
16:50 1016 30 845 24.95 25.6 78 15 -2.5 27.4
16:55 1016 30 845 24.95 25.3 77.6 16 -1.7 29
17:00 1016 30 845 24.95 25.6 78.1 17 -1.2 29.8
17:05 1016 30 845 24.95 25.7 78.3 15 -2.5 27.5
17:10 1016 30 845 24.95 25.7 78.3 15 -2.7 27.2
17:15 1016 30 845 24.95 25.8 78.5 15 -2.2 28.1
17:20 1016 30 845 24.95 25.8 78.5 15 -2.4 27.7
17:25 1016 30 845 24.95 25.8 78.4 15 -2.2 28
17:30 1016 30 845 24.95 25.6 78.1 15 -2.3 27.8
17:35 1016 30 845 24.95 25.8 78.5 15 -2.3 27.9
17:40 1016 30 845 24.95 25.6 78.1 15 -2.5 27.6
17:45 1016 30 845 24.95 25.7 78.3 16 -2.2 28.1
17:50 1016 30 845 24.95 25.7 78.3 16 -2.1 28.3
17:55 1016 30 845 24.95 25.6 78 18 0.1 32.1
18:00 1016 30 845 24.95 25.1 77.1 17 -1.5 29.4
18:05 1016 30 845 24.95 24.7 76.5 17 -1.6 29.1
18:10 1016 30 845 24.95 24.5 76.2 17 -2 28.5
18:15 1016 30 845 24.95 24.5 76.1 17 -1.7 28.9
18:20 1016 30 845 24.95 24.6 76.2 17 -2 28.4
18:25 1016 30 845 24.95 24.3 75.7 17 -2.3 27.8
18:30 1016 30 845 24.95 23.8 74.8 18 -1.8 28.7
18:35 1016 30 845 24.95 23.8 74.9 17 -2.9 26.9
18:40 1016 30 845 24.95 23.8 74.8 17 -2.5 27.4
18:45 1016 30 845 24.95 23.7 74.6 18 -2.1 28.2
18:50 1016 30 845 24.95 23.5 74.3 18 -1.8 28.8
18:55 1016 30 845 24.95 23.3 74 19 -1.1 30
19:00 1016 30 845 24.95 23.2 73.8 20 -0.8 30.6
19:05 1016 30 845 24.95 22.8 73.1 21 -0.4 31.3
19:10 1016 30 845 24.95 22.7 72.8 21 -0.8 30.6
19:15 1016 30 845 24.95 22.6 72.6 22 0.1 32.1
19:20 1016 30 845 24.95 22.5 72.5 22 -0 31.9
19:25 1016 30 845 24.95 22.4 72.3 22 -0.2 31.7
19:30 1016 30 845 24.95 22.3 72.2 21 -0.7 30.7
19:35 1016 30 845 24.95 22.2 72 21 -0.8 30.6
19:40 1016 30 845 24.95 22.1 71.7 23 -0.1 31.8
19:45 1016 30 845 24.95 21.9 71.5 24 0.4 32.8
19:50 1016 30 845 24.95 21.8 71.3 24 0.5 32.8
19:55 1016 30 845 24.95 21.7 71.1 24 0.3 32.6
20:00 1016 30 845 24.95 21.5 70.7 26 1.5 34.7
20:05 1016 30 846 24.98 21.4 70.5 27 1.6 34.8
20:10 1016 30 846 24.98 20.7 69.3 31 3 37.4
20:15 1016 30 846 24.98 20.1 68.3 31 2.4 36.4
20:20 1016 30 846 24.98 19.9 67.8 34 3.5 38.4
20:25 1017 30.03 846 24.98 19.3 66.7 37 4.5 40.2
20:30 1017 30.03 846 24.98 18.7 65.6 40 5 41
20:35 1017 30.03 846 24.98 18.1 64.6 39 4 39.2
20:40 1017 30.03 846 24.98 17.8 64 40 4.3 39.7
20:45 1017 30.03 846 24.98 17.3 63.1 40 3.5 38.4
20:50 1017 30.03 846 24.98 17.1 62.7 40 3.4 38.1
20:55 1017 30.03 846 24.98 17 62.6 40 3.3 38
21:00 1017 30.03 846 24.98 16.9 62.4 39 3.1 37.6
21:05 1017 30.03 846 24.98 16.7 62.1 40 3.1 37.7
21:10 1017 30.03 846 24.98 16.6 61.8 41 3.3 38
21:15 1017 30.03 846 24.98 16.4 61.5 40 3 37.4
21:20 1017 30.03 846 24.98 16.4 61.5 46 4.8 40.6
21:25 1017 30.03 847 25.01 16.2 61.1 42 3.4 38.2
21:30 1017 30.03 847 25.01 15.9 60.5 43 3.3 37.9
21:35 1017 30.03 847 25.01 15.6 60.1 43 3 37.5
21:40 1018 30.06 847 25.01 15.4 59.8 44 3.3 37.9
21:45 1018 30.06 847 25.01 15.3 59.5 44 3.1 37.6
21:50 1018 30.06 847 25.01 15.2 59.4 44 3.2 37.8
21:55 1018 30.06 847 25.01 15.1 59.1 43 2.7 36.9
22:00 1018 30.06 847 25.01 15.2 59.4 44 3 37.3
22:05 1018 30.06 847 25.01 15.1 59.1 46 3.5 38.4
22:10 1018 30.06 847 25.01 14.5 58 48 3.6 38.4
22:15 1018 30.06 847 25.01 14 57.1 56 5.3 41.5
22:20 1018 30.06 847 25.01 13.7 56.6 51 3.8 38.9
22:25 1018 30.06 847 25.01 13.5 56.3 51 3.6 38.4
22:30 1018 30.06 847 25.01 13.5 56.3 49 3.1 37.5
22:35 1018 30.06 847 25.01 13.7 56.7 49 3.2 37.8
22:40 1018 30.06 847 25.01 13.7 56.7 49 3.3 38
22:45 1018 30.06 847 25.01 13.7 56.6 47 2.6 36.7
22:50 1018 30.06 847 25.01 14.1 57.4 45 2.5 36.6
22:55 1018 30.06 847 25.01 14.5 58.1 45 2.7 36.8
23:00 1018 30.06 847 25.01 14.1 57.3 46 2.8 37
23:05 1018 30.06 847 25.01 13.8 56.9 48 3 37.3
23:10 1018 30.06 847 25.01 13.6 56.4 50 3.5 38.4
23:15 1018 30.06 847 25.01 12.7 54.8 54 3.8 38.8
23:20 1018 30.06 847 25.01 12.3 54.1 54 3.2 37.8
23:25 1018 30.06 847 25.01 12.3 54.2 53 3.2 37.8
23:30 1018 30.06 847 25.01 12.3 54.1 52 2.8 37
23:35 1018 30.06 847 25.01 12.6 54.6 52 2.9 37.3
23:40 1018 30.06 847 25.01 12.7 54.8 51 2.8 37
23:45 1018 30.06 847 25.01 12.6 54.7 50 2.5 36.5
23:50 1018 30.06 847 25.01 12.7 54.8 50 2.6 36.7
23:55 1018 30.06 848 25.04 12.6 54.7 49 2.3 36.2
24:00 1018 30.06 848 25.04 12.7 54.9 49 2.4 36.3